createdAt,value
2017-04-30T00:00:15.477Z,0
2017-04-30T00:00:56.130Z,0
2017-04-30T00:01:36.783Z,0
2017-04-30T00:02:17.437Z,0
2017-04-30T00:02:58.091Z,0
2017-04-30T00:03:38.739Z,0
2017-04-30T00:04:19.410Z,0
2017-04-30T00:05:00.048Z,0
2017-04-30T00:05:40.706Z,0
2017-04-30T00:06:21.354Z,0
2017-04-30T00:07:02.006Z,0
2017-04-30T00:07:43.681Z,0
2017-04-30T00:08:24.337Z,0
2017-04-30T00:09:05.029Z,0
2017-04-30T00:09:45.641Z,0
2017-04-30T00:10:26.292Z,0
2017-04-30T00:11:06.948Z,0
2017-04-30T00:11:47.606Z,0
2017-04-30T00:12:28.256Z,0
2017-04-30T00:13:09.944Z,0
2017-04-30T00:13:50.602Z,0
2017-04-30T00:14:31.240Z,0
2017-04-30T00:15:12.915Z,0
2017-04-30T00:15:53.504Z,0
2017-04-30T00:16:34.176Z,0
2017-04-30T00:17:14.774Z,0
2017-04-30T00:17:55.429Z,0
2017-04-30T00:18:35.994Z,0
2017-04-30T00:19:16.648Z,0
2017-04-30T00:19:57.321Z,0
2017-04-30T00:20:37.941Z,0
2017-04-30T00:21:18.605Z,0
2017-04-30T00:21:59.244Z,0
2017-04-30T00:22:39.898Z,0
2017-04-30T00:23:20.552Z,0
2017-04-30T00:24:01.202Z,0
2017-04-30T00:24:41.882Z,0
2017-04-30T00:25:23.532Z,0
2017-04-30T00:26:04.116Z,0
2017-04-30T00:26:44.807Z,0
2017-04-30T00:27:25.489Z,0
2017-04-30T00:28:06.144Z,0
2017-04-30T00:28:46.715Z,0
2017-04-30T00:29:27.304Z,0
2017-04-30T00:30:07.931Z,0
2017-04-30T00:30:48.544Z,0
2017-04-30T00:31:30.150Z,0
2017-04-30T00:32:10.788Z,0
2017-04-30T00:32:51.434Z,0
2017-04-30T00:33:32.089Z,0
2017-04-30T00:34:12.742Z,0
2017-04-30T00:34:53.400Z,0
2017-04-30T00:35:34.103Z,0
2017-04-30T00:36:14.758Z,0
2017-04-30T00:36:55.414Z,0
2017-04-30T00:37:36.064Z,0
2017-04-30T00:38:16.715Z,0
2017-04-30T00:38:57.370Z,0
2017-04-30T00:39:38.023Z,0
2017-04-30T00:40:18.680Z,0
2017-04-30T00:40:59.242Z,0
2017-04-30T00:41:39.934Z,0
2017-04-30T00:42:20.623Z,0
2017-04-30T00:43:01.288Z,0
2017-04-30T00:43:41.872Z,0
2017-04-30T00:44:22.546Z,0
2017-04-30T00:45:03.247Z,0
2017-04-30T00:45:43.905Z,0
2017-04-30T00:46:24.554Z,0
2017-04-30T00:47:05.209Z,0
2017-04-30T00:47:45.861Z,0
2017-04-30T00:48:27.379Z,0
2017-04-30T00:49:08.336Z,0
2017-04-30T00:49:48.946Z,0
2017-04-30T00:50:29.601Z,0
2017-04-30T00:51:10.252Z,0
2017-04-30T00:51:50.906Z,0
2017-04-30T00:52:31.581Z,0
2017-04-30T00:53:12.212Z,0
2017-04-30T00:53:52.865Z,0
2017-04-30T00:54:33.530Z,0
2017-04-30T00:55:14.173Z,0
2017-04-30T00:55:54.825Z,0
2017-04-30T00:56:35.478Z,0
2017-04-30T00:57:16.135Z,0
2017-04-30T00:57:56.775Z,0
2017-04-30T00:58:37.447Z,0
2017-04-30T00:59:18.091Z,0
2017-04-30T00:59:58.743Z,0
2017-04-30T01:00:39.397Z,0
2017-04-30T01:01:20.049Z,0
2017-04-30T01:02:00.703Z,0
2017-04-30T01:02:41.356Z,0
2017-04-30T01:03:22.112Z,0
2017-04-30T01:04:02.769Z,0
2017-04-30T01:04:43.413Z,0
2017-04-30T01:05:24.064Z,0
2017-04-30T01:06:04.626Z,0
2017-04-30T01:06:45.422Z,0
2017-04-30T01:07:26.127Z,0
2017-04-30T01:08:06.792Z,0
2017-04-30T01:08:47.371Z,0
2017-04-30T01:09:28.028Z,0
2017-04-30T01:10:08.736Z,0
2017-04-30T01:10:49.388Z,0
2017-04-30T01:11:29.943Z,0
2017-04-30T01:12:10.607Z,0
2017-04-30T01:12:51.259Z,0
2017-04-30T01:13:31.816Z,0
2017-04-30T01:14:12.448Z,0
2017-04-30T01:14:53.103Z,0
2017-04-30T01:15:33.683Z,0
2017-04-30T01:16:14.426Z,0
2017-04-30T01:16:55.064Z,0
2017-04-30T01:17:35.642Z,0
2017-04-30T01:18:16.338Z,0
2017-04-30T01:18:57.014Z,0
2017-04-30T01:19:37.679Z,0
2017-04-30T01:20:18.247Z,0
2017-04-30T01:20:58.979Z,0
2017-04-30T01:21:39.649Z,0
2017-04-30T01:22:20.296Z,0
2017-04-30T01:23:00.959Z,0
2017-04-30T01:23:41.593Z,0
2017-04-30T01:24:22.250Z,0
2017-04-30T01:25:02.915Z,0
2017-04-30T01:25:43.471Z,0
2017-04-30T01:26:24.164Z,0
2017-04-30T01:27:04.852Z,0
2017-04-30T01:27:45.513Z,0
2017-04-30T01:28:26.082Z,0
2017-04-30T01:29:06.779Z,0
2017-04-30T01:29:47.490Z,0
2017-04-30T01:30:28.230Z,0
2017-04-30T01:31:08.897Z,0
2017-04-30T01:31:49.554Z,0
2017-04-30T01:32:30.202Z,0
2017-04-30T01:33:10.947Z,0
2017-04-30T01:33:51.612Z,0
2017-04-30T01:34:32.249Z,0
2017-04-30T01:35:13.008Z,0
2017-04-30T01:35:53.573Z,0
2017-04-30T01:36:35.280Z,0
2017-04-30T01:37:16.019Z,0
2017-04-30T01:37:56.740Z,0
2017-04-30T01:38:37.327Z,0
2017-04-30T01:39:17.993Z,0
2017-04-30T01:39:58.717Z,0
2017-04-30T01:40:39.356Z,0
2017-04-30T01:41:20.020Z,0
2017-04-30T01:42:00.674Z,0
2017-04-30T01:42:41.316Z,0
2017-04-30T01:43:21.969Z,0
2017-04-30T01:44:02.636Z,0
2017-04-30T01:44:43.287Z,0
2017-04-30T01:45:23.955Z,0
2017-04-30T01:46:05.686Z,0
2017-04-30T01:46:46.359Z,0
2017-04-30T01:47:27.025Z,0
2017-04-30T01:48:07.671Z,0
2017-04-30T01:48:48.353Z,0
2017-04-30T01:49:28.968Z,0
2017-04-30T01:50:09.634Z,0
2017-04-30T01:50:50.208Z,0
2017-04-30T01:51:30.928Z,0
2017-04-30T01:52:11.577Z,0
2017-04-30T01:52:52.129Z,0
2017-04-30T01:53:32.801Z,0
2017-04-30T01:54:13.437Z,0
2017-04-30T01:54:54.006Z,0
2017-04-30T01:55:34.636Z,0
2017-04-30T01:56:15.294Z,0
2017-04-30T01:56:55.863Z,0
2017-04-30T01:57:36.586Z,0
2017-04-30T01:58:17.247Z,0
2017-04-30T01:58:57.927Z,0
2017-04-30T01:59:38.489Z,0
2017-04-30T02:00:19.178Z,0
2017-04-30T02:00:59.863Z,0
2017-04-30T02:01:41.553Z,0
2017-04-30T02:02:22.114Z,0
2017-04-30T02:03:02.818Z,0
2017-04-30T02:03:43.498Z,0
2017-04-30T02:04:24.157Z,0
2017-04-30T02:05:04.716Z,0
2017-04-30T02:05:45.414Z,0
2017-04-30T02:06:26.108Z,0
2017-04-30T02:07:06.774Z,0
2017-04-30T02:07:47.415Z,0
2017-04-30T02:08:28.103Z,0
2017-04-30T02:09:08.715Z,0
2017-04-30T02:09:49.369Z,0
2017-04-30T02:10:30.015Z,0
2017-04-30T02:11:10.686Z,0
2017-04-30T02:11:51.247Z,0
2017-04-30T02:12:31.925Z,0
2017-04-30T02:13:12.646Z,0
2017-04-30T02:13:53.296Z,0
2017-04-30T02:14:33.875Z,0
2017-04-30T02:15:14.556Z,0
2017-04-30T02:15:55.255Z,0
2017-04-30T02:16:35.911Z,0
2017-04-30T02:17:16.562Z,0
2017-04-30T02:17:57.221Z,0
2017-04-30T02:18:37.877Z,0
2017-04-30T02:19:18.525Z,0
2017-04-30T02:19:59.719Z,0
2017-04-30T02:20:40.408Z,0
2017-04-30T02:21:21.062Z,0
2017-04-30T02:22:01.716Z,0
2017-04-30T02:22:43.405Z,0
2017-04-30T02:23:24.042Z,0
2017-04-30T02:24:04.709Z,0
2017-04-30T02:24:45.352Z,0
2017-04-30T02:25:26.002Z,0
2017-04-30T02:26:06.654Z,0
2017-04-30T02:26:47.221Z,0
2017-04-30T02:27:27.855Z,0
2017-04-30T02:28:08.509Z,0
2017-04-30T02:28:49.094Z,0
2017-04-30T02:29:29.724Z,0
2017-04-30T02:30:10.370Z,0
2017-04-30T02:30:50.928Z,0
2017-04-30T02:31:31.581Z,0
2017-04-30T02:32:12.220Z,0
2017-04-30T02:32:53.569Z,0
2017-04-30T02:33:34.255Z,0
2017-04-30T02:34:14.900Z,0
2017-04-30T02:34:55.548Z,0
2017-04-30T02:35:36.226Z,0
2017-04-30T02:36:16.857Z,0
2017-04-30T02:36:57.520Z,0
2017-04-30T02:37:38.162Z,0
2017-04-30T02:38:18.846Z,0
2017-04-30T02:38:59.396Z,0
2017-04-30T02:39:40.016Z,0
2017-04-30T02:40:20.677Z,0
2017-04-30T02:41:01.277Z,0
2017-04-30T02:41:41.979Z,0
2017-04-30T02:42:22.634Z,0
2017-04-30T02:43:03.282Z,0
2017-04-30T02:43:43.940Z,0
2017-04-30T02:44:24.604Z,0
2017-04-30T02:45:05.256Z,0
2017-04-30T02:45:45.896Z,0
2017-04-30T02:46:26.570Z,0
2017-04-30T02:47:07.232Z,0
2017-04-30T02:47:47.853Z,0
2017-04-30T02:48:28.512Z,0
2017-04-30T02:49:09.172Z,0
2017-04-30T02:49:49.817Z,0
2017-04-30T02:50:30.469Z,0
2017-04-30T02:51:11.119Z,0
2017-04-30T02:51:51.812Z,0
2017-04-30T02:52:32.422Z,0
2017-04-30T02:53:13.110Z,0
2017-04-30T02:53:54.549Z,0
2017-04-30T02:54:35.215Z,0
2017-04-30T02:55:15.879Z,0
2017-04-30T02:55:56.564Z,0
2017-04-30T02:56:37.265Z,0
2017-04-30T02:57:17.915Z,0
2017-04-30T02:57:58.591Z,0
2017-04-30T02:58:39.230Z,0
2017-04-30T02:59:19.875Z,0
2017-04-30T03:00:00.529Z,0
2017-04-30T03:00:41.182Z,0
2017-04-30T03:01:21.835Z,0
2017-04-30T03:02:03.618Z,0
2017-04-30T03:02:44.271Z,0
2017-04-30T03:03:24.922Z,0
2017-04-30T03:04:05.574Z,0
2017-04-30T03:04:46.235Z,0
2017-04-30T03:05:26.894Z,0
2017-04-30T03:06:07.534Z,0
2017-04-30T03:06:48.191Z,0
2017-04-30T03:07:28.836Z,0
2017-04-30T03:08:09.493Z,0
2017-04-30T03:08:50.171Z,0
2017-04-30T03:09:30.795Z,0
2017-04-30T03:10:11.452Z,0
2017-04-30T03:10:52.105Z,0
2017-04-30T03:11:32.753Z,0
2017-04-30T03:12:13.312Z,0
2017-04-30T03:12:54.039Z,0
2017-04-30T03:13:34.728Z,0
2017-04-30T03:14:15.373Z,0
2017-04-30T03:14:55.948Z,0
2017-04-30T03:15:36.651Z,0
2017-04-30T03:16:17.324Z,0
2017-04-30T03:16:57.987Z,0
2017-04-30T03:17:38.638Z,0
2017-04-30T03:18:19.293Z,0
2017-04-30T03:18:59.950Z,0
2017-04-30T03:19:40.602Z,0
2017-04-30T03:20:21.252Z,0
2017-04-30T03:21:01.905Z,4
2017-04-30T03:21:42.559Z,4
2017-04-30T03:22:23.124Z,4
2017-04-30T03:23:03.713Z,4
2017-04-30T03:23:44.417Z,4
2017-04-30T03:24:25.075Z,0
2017-04-30T03:25:05.648Z,0
2017-04-30T03:25:46.342Z,4
2017-04-30T03:26:27.032Z,4
2017-04-30T03:27:07.677Z,4
2017-04-30T03:27:48.270Z,4
2017-04-30T03:28:28.943Z,4
2017-04-30T03:29:09.634Z,4
2017-04-30T03:29:50.292Z,8
2017-04-30T03:30:30.849Z,4
2017-04-30T03:31:11.571Z,4
2017-04-30T03:31:53.289Z,8
2017-04-30T03:32:34.036Z,8
2017-04-30T03:33:14.594Z,8
2017-04-30T03:33:55.299Z,8
2017-04-30T03:34:35.988Z,12
2017-04-30T03:35:16.638Z,12
2017-04-30T03:35:57.203Z,12
2017-04-30T03:36:39.995Z,12
2017-04-30T03:37:20.649Z,16
2017-04-30T03:38:01.291Z,16
2017-04-30T03:38:41.954Z,16
2017-04-30T03:39:22.607Z,20
2017-04-30T03:40:03.264Z,24
2017-04-30T03:40:43.908Z,24
2017-04-30T03:41:24.565Z,24
2017-04-30T03:42:05.220Z,28
2017-04-30T03:42:45.870Z,28
2017-04-30T03:43:26.526Z,36
2017-04-30T03:44:07.176Z,36
2017-04-30T03:44:47.829Z,40
2017-04-30T03:45:29.298Z,44
2017-04-30T03:46:09.861Z,48
2017-04-30T03:46:50.564Z,52
2017-04-30T03:47:31.253Z,56
2017-04-30T03:48:11.913Z,64
2017-04-30T03:48:52.465Z,72
2017-04-30T03:49:33.192Z,76
2017-04-30T03:50:13.864Z,80
2017-04-30T03:50:54.522Z,84
2017-04-30T03:51:35.116Z,92
2017-04-30T03:52:15.801Z,100
2017-04-30T03:52:56.475Z,112
2017-04-30T03:53:37.128Z,116
2017-04-30T03:54:17.682Z,128
2017-04-30T03:55:00.327Z,136
2017-04-30T03:55:41.039Z,144
2017-04-30T03:56:21.692Z,156
2017-04-30T03:57:03.367Z,168
2017-04-30T03:57:44.022Z,180
2017-04-30T03:58:26.724Z,192
2017-04-30T03:59:07.380Z,200
2017-04-30T03:59:48.032Z,212
2017-04-30T04:00:30.730Z,228
2017-04-30T04:01:11.386Z,244
2017-04-30T04:01:53.066Z,256
2017-04-30T04:02:33.717Z,276
2017-04-30T04:03:14.365Z,292
2017-04-30T04:03:55.022Z,304
2017-04-30T04:04:35.712Z,320
2017-04-30T04:05:16.425Z,340
2017-04-30T04:05:59.123Z,356
2017-04-30T04:06:39.778Z,376
2017-04-30T04:07:21.449Z,396
2017-04-30T04:08:02.108Z,416
2017-04-30T04:08:42.751Z,436
2017-04-30T04:09:23.409Z,456
2017-04-30T04:10:04.057Z,476
2017-04-30T04:10:44.725Z,500
2017-04-30T04:11:25.367Z,524
2017-04-30T04:12:08.069Z,548
2017-04-30T04:12:48.722Z,568
2017-04-30T04:13:29.374Z,596
2017-04-30T04:14:10.026Z,620
2017-04-30T04:14:50.684Z,644
2017-04-30T04:15:31.335Z,672
2017-04-30T04:16:11.952Z,696
2017-04-30T04:16:52.639Z,720
2017-04-30T04:17:33.291Z,744
2017-04-30T04:18:13.874Z,776
2017-04-30T04:18:55.520Z,804
2017-04-30T04:19:36.173Z,828
2017-04-30T04:20:16.738Z,860
2017-04-30T04:20:57.380Z,884
2017-04-30T04:21:38.021Z,916
2017-04-30T04:22:18.683Z,948
2017-04-30T04:22:59.345Z,972
2017-04-30T04:23:39.989Z,1008
2017-04-30T04:24:20.657Z,1036
2017-04-30T04:25:01.295Z,1064
2017-04-30T04:25:41.948Z,1096
2017-04-30T04:26:22.600Z,1124
2017-04-30T04:27:03.163Z,1156
2017-04-30T04:27:43.853Z,1184
2017-04-30T04:28:24.559Z,1216
2017-04-30T04:29:05.215Z,1248
2017-04-30T04:29:45.783Z,1276
2017-04-30T04:30:26.467Z,1308
2017-04-30T04:31:07.182Z,1336
2017-04-30T04:31:47.826Z,1368
2017-04-30T04:32:28.478Z,1396
2017-04-30T04:33:09.132Z,1428
2017-04-30T04:33:49.784Z,1456
2017-04-30T04:34:30.437Z,1484
2017-04-30T04:35:11.089Z,1516
2017-04-30T04:35:51.745Z,1548
2017-04-30T04:36:32.396Z,1572
2017-04-30T04:37:13.050Z,1608
2017-04-30T04:37:53.707Z,1636
2017-04-30T04:38:34.357Z,1664
2017-04-30T04:39:15.008Z,1692
2017-04-30T04:39:55.663Z,1724
2017-04-30T04:40:36.311Z,1752
2017-04-30T04:41:16.970Z,1780
2017-04-30T04:41:57.623Z,1808
2017-04-30T04:42:38.276Z,1836
2017-04-30T04:43:18.924Z,1864
2017-04-30T04:43:59.611Z,1892
2017-04-30T04:44:40.338Z,1924
2017-04-30T04:45:20.992Z,1948
2017-04-30T04:46:01.646Z,1976
2017-04-30T04:46:42.298Z,2004
2017-04-30T04:47:22.953Z,2032
2017-04-30T04:48:03.596Z,2052
2017-04-30T04:48:44.258Z,2084
2017-04-30T04:49:24.909Z,2108
2017-04-30T04:50:05.562Z,2132
2017-04-30T04:50:46.208Z,2160
2017-04-30T04:51:26.869Z,2184
2017-04-30T04:52:07.523Z,2208
2017-04-30T04:52:48.170Z,2232
2017-04-30T04:53:28.820Z,2256
2017-04-30T04:54:09.473Z,2280
2017-04-30T04:54:50.134Z,2300
2017-04-30T04:55:30.778Z,2324
2017-04-30T04:56:11.343Z,2344
2017-04-30T04:56:52.045Z,2364
2017-04-30T04:57:32.783Z,2384
2017-04-30T04:58:13.491Z,2404
2017-04-30T04:58:54.059Z,2424
2017-04-30T04:59:34.774Z,2444
2017-04-30T05:00:15.457Z,2464
2017-04-30T05:00:56.128Z,2488
2017-04-30T05:01:36.695Z,2512
2017-04-30T05:02:17.372Z,2532
2017-04-30T05:02:58.077Z,2552
2017-04-30T05:03:38.729Z,2576
2017-04-30T05:04:19.308Z,2596
2017-04-30T05:04:59.982Z,2620
2017-04-30T05:05:40.677Z,2644
2017-04-30T05:06:21.332Z,2668
2017-04-30T05:07:01.883Z,2688
2017-04-30T05:07:42.524Z,2712
2017-04-30T05:08:23.201Z,2732
2017-04-30T05:09:03.767Z,2752
2017-04-30T05:09:44.397Z,2772
2017-04-30T05:10:25.047Z,2792
2017-04-30T05:11:05.620Z,2808
2017-04-30T05:11:46.353Z,2828
2017-04-30T05:12:27.005Z,2844
2017-04-30T05:13:07.653Z,2868
2017-04-30T05:13:48.317Z,2884
2017-04-30T05:14:28.959Z,2900
2017-04-30T05:15:09.634Z,2912
2017-04-30T05:15:50.271Z,2932
2017-04-30T05:16:30.921Z,2952
2017-04-30T05:17:11.576Z,2968
2017-04-30T05:17:52.233Z,2984
2017-04-30T05:18:32.899Z,3000
2017-04-30T05:19:13.536Z,3016
2017-04-30T05:19:54.184Z,3036
2017-04-30T05:20:34.840Z,3048
2017-04-30T05:21:15.409Z,3064
2017-04-30T05:21:56.061Z,3076
2017-04-30T05:22:36.695Z,3088
2017-04-30T05:23:17.273Z,3104
2017-04-30T05:23:58.027Z,3124
2017-04-30T05:24:38.758Z,3132
2017-04-30T05:25:19.326Z,3144
2017-04-30T05:25:59.896Z,3160
2017-04-30T05:26:40.463Z,3176
2017-04-30T05:27:21.014Z,3192
2017-04-30T05:28:01.589Z,3204
2017-04-30T05:28:42.253Z,3224
2017-04-30T05:29:22.917Z,3232
2017-04-30T05:30:03.546Z,3248
2017-04-30T05:30:44.221Z,3260
2017-04-30T05:31:24.881Z,3276
2017-04-30T05:32:05.527Z,3296
2017-04-30T05:32:46.101Z,3308
2017-04-30T05:33:26.809Z,3324
2017-04-30T05:34:07.434Z,3340
2017-04-30T05:34:48.165Z,3356
2017-04-30T05:35:28.856Z,3372
2017-04-30T05:36:09.513Z,3384
2017-04-30T05:36:50.198Z,3400
2017-04-30T05:37:30.861Z,3412
2017-04-30T05:38:11.430Z,3428
2017-04-30T05:38:53.150Z,3440
2017-04-30T05:39:33.861Z,3456
2017-04-30T05:40:14.621Z,3476
2017-04-30T05:40:55.190Z,3484
2017-04-30T05:41:35.892Z,3500
2017-04-30T05:42:16.614Z,3512
2017-04-30T05:42:57.303Z,3524
2017-04-30T05:43:38.054Z,3536
2017-04-30T05:44:18.808Z,3548
2017-04-30T05:44:59.530Z,3564
2017-04-30T05:45:40.199Z,3576
2017-04-30T05:46:20.842Z,3592
2017-04-30T05:47:01.556Z,3604
2017-04-30T05:47:42.131Z,3624
2017-04-30T05:48:22.837Z,3640
2017-04-30T05:49:03.484Z,3656
2017-04-30T05:49:44.043Z,3672
2017-04-30T05:50:24.715Z,3692
2017-04-30T05:51:05.472Z,3704
2017-04-30T05:51:46.026Z,3720
2017-04-30T05:52:26.714Z,3736
2017-04-30T05:53:07.396Z,3748
2017-04-30T05:53:48.084Z,3756
2017-04-30T05:54:28.653Z,3772
2017-04-30T05:55:09.331Z,3780
2017-04-30T05:55:50.088Z,3792
2017-04-30T05:56:30.798Z,3800
2017-04-30T05:57:11.447Z,3812
2017-04-30T05:57:52.082Z,3820
2017-04-30T05:58:32.742Z,3836
2017-04-30T05:59:13.494Z,3852
2017-04-30T05:59:54.145Z,3856
2017-04-30T06:00:34.796Z,3868
2017-04-30T06:01:15.449Z,3876
2017-04-30T06:01:56.102Z,3884
2017-04-30T06:02:36.866Z,3896
2017-04-30T06:03:17.536Z,3904
2017-04-30T06:03:58.269Z,3912
2017-04-30T06:04:38.930Z,3920
2017-04-30T06:05:19.697Z,3928
2017-04-30T06:06:00.437Z,3936
2017-04-30T06:06:41.089Z,3944
2017-04-30T06:07:21.738Z,3960
2017-04-30T06:08:02.393Z,3972
2017-04-30T06:08:43.142Z,3976
2017-04-30T06:09:24.007Z,3992
2017-04-30T06:10:04.659Z,4004
2017-04-30T06:10:45.314Z,4016
2017-04-30T06:11:25.966Z,4036
2017-04-30T06:12:06.617Z,4052
2017-04-30T06:12:47.374Z,4068
2017-04-30T06:13:28.168Z,4088
2017-04-30T06:14:08.892Z,4112
2017-04-30T06:14:49.669Z,4136
2017-04-30T06:15:30.395Z,4160
2017-04-30T06:16:10.991Z,4188
2017-04-30T06:16:51.702Z,4204
2017-04-30T06:17:32.358Z,4228
2017-04-30T06:18:13.107Z,4248
2017-04-30T06:18:53.761Z,4268
2017-04-30T06:19:34.517Z,4288
2017-04-30T06:20:15.284Z,4300
2017-04-30T06:20:56.029Z,4312
2017-04-30T06:21:36.613Z,4332
2017-04-30T06:22:17.271Z,4348
2017-04-30T06:22:58.046Z,4360
2017-04-30T06:23:38.739Z,4376
2017-04-30T06:24:19.301Z,4388
2017-04-30T06:25:00.020Z,4400
2017-04-30T06:25:40.797Z,4416
2017-04-30T06:26:21.456Z,4428
2017-04-30T06:27:02.169Z,4432
2017-04-30T07:06:48.969Z,4636
2017-04-30T07:07:29.623Z,4696
2017-04-30T07:08:10.282Z,4704
2017-04-30T07:08:51.029Z,4708
2017-04-30T07:09:31.782Z,4668
2017-04-30T07:10:12.531Z,4740
2017-04-30T07:10:53.303Z,4740
2017-04-30T07:11:34.043Z,4744
2017-04-30T07:12:14.695Z,4756
2017-04-30T07:12:55.360Z,4772
2017-04-30T07:13:35.923Z,4740
2017-04-30T07:14:16.661Z,4816
2017-04-30T07:14:57.431Z,4844
2017-04-30T07:15:38.167Z,4856
2017-04-30T07:16:18.918Z,4856
2017-04-30T07:16:59.678Z,4852
2017-04-30T07:17:41.353Z,4860
2017-04-30T07:18:22.014Z,4848
2017-04-30T07:19:02.760Z,4824
2017-04-30T07:19:43.520Z,4812
2017-04-30T07:20:25.192Z,4812
2017-04-30T07:21:05.844Z,4824
2017-04-30T07:21:46.499Z,4828
2017-04-30T07:22:27.059Z,4856
2017-04-30T07:23:07.750Z,4872
2017-04-30T07:23:50.509Z,4888
2017-04-30T07:24:31.161Z,4904
2017-04-30T07:25:11.764Z,4916
2017-04-30T07:25:53.456Z,4916
2017-04-30T07:26:34.190Z,4932
2017-04-30T07:27:15.957Z,4956
2017-04-30T07:27:58.627Z,4980
2017-04-30T07:28:40.311Z,4992
2017-04-30T07:29:23.005Z,4996
2017-04-30T07:30:03.755Z,4992
2017-04-30T07:30:44.521Z,4988
2017-04-30T07:31:25.170Z,4984
2017-04-30T07:32:05.820Z,4980
2017-04-30T07:32:46.580Z,4976
2017-04-30T07:33:27.334Z,4996
2017-04-30T07:34:08.093Z,5004
2017-04-30T07:34:49.885Z,5000
2017-04-30T07:35:30.626Z,5004
2017-04-30T07:36:11.382Z,5012
2017-04-30T07:36:52.034Z,5028
2017-04-30T07:37:33.713Z,5056
2017-04-30T07:38:14.468Z,5064
2017-04-30T07:38:55.227Z,5060
2017-04-30T07:39:35.990Z,5064
2017-04-30T07:40:16.741Z,5080
2017-04-30T07:40:58.420Z,5100
2017-04-30T07:41:39.177Z,5104
2017-04-30T07:42:20.849Z,5092
2017-04-30T07:43:01.612Z,5120
2017-04-30T07:43:42.865Z,5132
2017-04-30T07:44:23.625Z,5140
2017-04-30T07:45:04.388Z,5096
2017-04-30T07:45:45.148Z,5168
2017-04-30T07:46:25.906Z,5188
2017-04-30T07:47:06.648Z,5184
2017-04-30T07:47:47.402Z,5188
2017-04-30T07:48:28.152Z,5196
2017-04-30T07:49:08.909Z,5196
2017-04-30T07:49:49.663Z,5196
2017-04-30T07:50:31.343Z,5224
2017-04-30T07:51:12.102Z,5244
2017-04-30T07:51:52.854Z,5200
2017-04-30T07:52:38.224Z,5244
2017-04-30T07:53:18.970Z,5248
2017-04-30T07:54:00.645Z,5256
2017-04-30T07:54:41.401Z,5248
2017-04-30T07:55:22.158Z,5240
2017-04-30T07:56:07.736Z,5244
2017-04-30T07:56:48.291Z,5224
2017-04-30T07:57:29.021Z,5268
2017-04-30T07:58:09.583Z,5240
2017-04-30T07:58:51.260Z,5176
2017-04-30T07:59:31.858Z,5184
2017-04-30T08:00:12.513Z,5208
2017-04-30T08:00:53.738Z,5220
2017-04-30T08:01:35.513Z,5272
2017-04-30T08:02:17.184Z,5216
2017-04-30T08:02:57.944Z,5208
2017-04-30T08:03:38.704Z,5216
2017-04-30T08:04:19.448Z,5200
2017-04-30T08:05:00.240Z,5180
2017-04-30T08:05:41.985Z,5144
2017-04-30T08:06:22.546Z,5168
2017-04-30T08:07:04.323Z,5180
2017-04-30T08:07:44.919Z,5196
2017-04-30T08:08:25.712Z,5212
2017-04-30T08:09:07.396Z,5196
2017-04-30T08:09:47.968Z,5240
2017-04-30T08:10:29.734Z,5232
2017-04-30T08:11:10.290Z,5236
2017-04-30T08:11:51.023Z,5264
2017-04-30T08:12:31.695Z,5280
2017-04-30T08:13:12.456Z,5280
2017-04-30T08:13:53.038Z,5240
2017-04-30T08:14:33.837Z,5276
2017-04-30T08:15:14.516Z,5284
2017-04-30T08:15:55.270Z,5300
2017-04-30T08:16:35.838Z,5288
2017-04-30T08:17:16.576Z,5324
2017-04-30T08:17:57.326Z,5344
2017-04-30T08:18:37.886Z,5364
2017-04-30T08:19:18.639Z,5356
2017-04-30T08:19:59.402Z,5356
2017-04-30T08:20:39.982Z,5368
2017-04-30T08:21:22.645Z,5360
2017-04-30T08:22:03.296Z,5364
2017-04-30T08:22:43.890Z,5340
2017-04-30T08:23:24.686Z,5372
2017-04-30T08:24:05.478Z,5356
2017-04-30T08:24:46.213Z,5356
2017-04-30T08:25:26.793Z,5344
2017-04-30T08:26:07.480Z,5332
2017-04-30T08:26:48.200Z,5332
2017-04-30T08:27:28.944Z,5324
2017-04-30T08:28:09.685Z,5320
2017-04-30T08:28:50.459Z,5324
2017-04-30T08:29:31.199Z,5336
2017-04-30T08:30:11.956Z,5312
2017-04-30T08:30:52.747Z,5300
2017-04-30T08:31:34.512Z,5272
2017-04-30T08:32:15.439Z,5256
2017-04-30T08:32:56.101Z,5256
2017-04-30T08:33:36.853Z,5288
2017-04-30T08:34:17.617Z,5316
2017-04-30T08:34:58.365Z,5312
2017-04-30T08:35:39.118Z,5336
2017-04-30T08:36:19.876Z,5236
2017-04-30T08:37:00.452Z,5308
2017-04-30T08:37:41.143Z,5348
2017-04-30T08:38:21.834Z,5372
2017-04-30T08:39:02.592Z,5396
2017-04-30T08:39:43.161Z,5412
2017-04-30T08:40:23.880Z,5428
2017-04-30T08:41:04.659Z,5424
2017-04-30T08:41:45.524Z,5460
2017-04-30T08:42:26.269Z,5464
2017-04-30T08:43:07.082Z,5476
2017-04-30T08:43:47.773Z,5496
2017-04-30T08:44:28.535Z,5516
2017-04-30T08:45:09.286Z,5536
2017-04-30T08:45:50.046Z,5492
2017-04-30T08:46:30.797Z,5556
2017-04-30T08:47:11.391Z,5520
2017-04-30T08:47:52.131Z,5548
2017-04-30T08:48:32.698Z,5564
2017-04-30T08:49:13.242Z,5556
2017-04-30T08:49:53.794Z,5560
2017-04-30T08:50:34.348Z,5568
2017-04-30T08:51:15.063Z,5576
2017-04-30T08:51:55.639Z,5552
2017-04-30T08:52:37.299Z,5532
2017-04-30T08:53:17.949Z,5532
2017-04-30T08:53:58.524Z,5504
2017-04-30T08:54:39.228Z,5504
2017-04-30T08:55:19.903Z,5532
2017-04-30T08:56:00.561Z,5564
2017-04-30T08:56:41.158Z,5588
2017-04-30T08:57:21.874Z,5616
2017-04-30T08:58:02.533Z,5620
2017-04-30T08:58:43.261Z,5628
2017-04-30T08:59:23.952Z,5644
2017-04-30T09:00:04.592Z,5644
2017-04-30T09:02:33.359Z,5676
2017-04-30T09:03:14.030Z,5648
2017-04-30T09:03:56.717Z,5632
2017-04-30T09:04:37.365Z,5676
2017-04-30T09:05:19.039Z,5668
2017-04-30T09:06:00.731Z,5628
2017-04-30T09:06:41.443Z,5588
2017-04-30T09:07:23.162Z,5564
2017-04-30T09:08:03.809Z,5524
2017-04-30T09:08:44.609Z,5492
2017-04-30T09:09:26.246Z,5624
2017-04-30T09:10:06.913Z,5616
2017-04-30T09:10:47.556Z,5648
2017-04-30T09:11:28.209Z,5632
2017-04-30T09:12:08.879Z,5612
2017-04-30T09:12:49.509Z,5588
2017-04-30T09:13:30.166Z,5596
2017-04-30T09:14:11.721Z,5632
2017-04-30T09:14:52.381Z,5608
2017-04-30T09:15:33.041Z,5656
2017-04-30T09:16:13.689Z,5684
2017-04-30T09:16:56.285Z,5700
2017-04-30T09:17:36.964Z,5732
2017-04-30T09:18:17.597Z,5748
2017-04-30T09:18:58.251Z,5772
2017-04-30T09:19:38.910Z,5792
2017-04-30T09:20:19.557Z,5792
2017-04-30T09:21:00.217Z,5812
2017-04-30T09:21:40.819Z,5784
2017-04-30T09:22:21.371Z,5800
2017-04-30T09:23:01.972Z,5816
2017-04-30T09:23:42.540Z,5812
2017-04-30T09:24:23.192Z,5828
2017-04-30T09:25:03.925Z,5804
2017-04-30T09:25:44.517Z,5804
2017-04-30T09:26:31.192Z,5796
2017-04-30T09:27:11.844Z,5772
2017-04-30T09:27:52.473Z,5740
2017-04-30T09:28:33.129Z,5740
2017-04-30T09:29:14.804Z,5736
2017-04-30T09:29:56.482Z,5740
2017-04-30T09:30:37.133Z,5752
2017-04-30T09:31:17.805Z,5764
2017-04-30T09:31:58.370Z,5784
2017-04-30T09:32:38.994Z,5724
2017-04-30T09:33:19.661Z,5652
2017-04-30T09:34:01.316Z,5720
2017-04-30T09:34:41.972Z,5608
2017-04-30T09:35:22.626Z,5612
2017-04-30T09:36:03.278Z,5472
2017-04-30T09:36:44.264Z,5600
2017-04-30T09:37:25.663Z,5616
2017-04-30T09:38:06.357Z,5672
2017-04-30T09:38:47.015Z,5724
2017-04-30T09:39:27.655Z,5732
2017-04-30T09:40:08.320Z,5748
2017-04-30T09:40:48.886Z,5716
2017-04-30T09:41:29.568Z,5748
2017-04-30T09:42:10.226Z,5732
2017-04-30T09:42:50.852Z,5676
2017-04-30T09:43:31.428Z,5744
2017-04-30T09:44:12.026Z,5740
2017-04-30T09:44:52.676Z,5748
2017-04-30T09:45:33.255Z,5752
2017-04-30T09:46:13.883Z,5760
2017-04-30T09:46:54.539Z,5772
2017-04-30T09:47:35.104Z,5776
2017-04-30T09:48:15.727Z,5780
2017-04-30T09:48:56.289Z,5780
2017-04-30T09:49:36.953Z,5784
2017-04-30T09:50:17.507Z,5780
2017-04-30T09:50:58.280Z,5780
2017-04-30T09:51:38.956Z,5760
2017-04-30T09:52:19.562Z,5780
2017-04-30T09:53:00.202Z,5780
2017-04-30T09:53:40.783Z,5704
2017-04-30T09:54:21.462Z,5800
2017-04-30T09:55:02.060Z,5764
2017-04-30T09:55:42.722Z,5812
2017-04-30T09:56:23.320Z,5852
2017-04-30T09:57:03.975Z,5844
2017-04-30T09:57:44.540Z,5832
2017-04-30T09:58:25.229Z,5876
2017-04-30T09:59:05.796Z,5876
2017-04-30T09:59:46.567Z,5852
2017-04-30T10:00:27.270Z,5860
2017-04-30T10:01:08.029Z,5840
2017-04-30T10:01:48.589Z,5920
2017-04-30T10:02:29.283Z,5812
2017-04-30T10:03:09.983Z,5856
2017-04-30T10:03:50.749Z,5892
2017-04-30T10:04:31.317Z,5888
2017-04-30T10:05:12.102Z,5888
2017-04-30T10:05:52.805Z,5932
2017-04-30T10:06:33.457Z,5924
2017-04-30T10:07:14.046Z,5928